createdAt,value
2019-04-29T00:02:33.376Z,1.10
2019-04-29T00:05:03.297Z,1.10
2019-04-29T00:07:33.153Z,1.30
2019-04-29T00:10:03.000Z,1.40
2019-04-29T00:12:32.872Z,1.40
2019-04-29T00:15:17.713Z,2.50
2019-04-29T00:17:56.585Z,2.03
2019-04-29T00:20:41.031Z,2.13
2019-04-29T00:23:10.760Z,1.40
2019-04-29T00:25:40.661Z,1.30
2019-04-29T00:28:10.722Z,1.43
2019-04-29T00:30:40.634Z,1.40
2019-04-29T00:33:10.338Z,1.33
2019-04-29T00:35:40.145Z,1.30
2019-04-29T00:38:31.998Z,1.57
2019-04-29T00:41:19.284Z,1.30
2019-04-29T00:43:55.406Z,1.23
2019-04-29T00:46:25.183Z,1.20
2019-04-29T00:48:54.946Z,1.37
2019-04-29T00:51:24.801Z,1.30
2019-04-29T00:53:59.097Z,1.20
2019-04-29T00:56:28.925Z,1.60
2019-04-29T00:58:58.681Z,1.00
2019-04-29T01:01:28.518Z,1.50
2019-04-29T01:03:58.333Z,1.43
2019-04-29T01:06:28.046Z,1.37
2019-04-29T01:08:57.805Z,1.00
2019-04-29T01:11:27.707Z,1.43
2019-04-29T01:13:57.456Z,1.40
2019-04-29T01:16:27.229Z,1.50
2019-04-29T01:18:57.055Z,1.47
2019-04-29T01:21:26.805Z,1.30
2019-04-29T01:23:56.610Z,1.97
2019-04-29T01:26:47.965Z,1.50
2019-04-29T01:29:18.613Z,1.63
2019-04-29T01:31:48.433Z,1.70
2019-04-29T01:34:22.833Z,1.63
2019-04-29T01:36:52.592Z,1.40
2019-04-29T01:39:24.387Z,1.67
2019-04-29T01:42:12.149Z,1.23
2019-04-29T01:44:41.902Z,1.40
2019-04-29T01:47:11.650Z,1.60
2019-04-29T01:49:41.453Z,1.40
2019-04-29T01:52:11.209Z,1.37
2019-04-29T01:54:40.953Z,1.40
2019-04-29T01:57:10.748Z,1.23
2019-04-29T01:59:40.516Z,1.40
2019-04-29T02:02:10.297Z,1.63
2019-04-29T02:04:40.081Z,1.40
2019-04-29T02:07:09.874Z,1.67
2019-04-29T02:09:45.410Z,1.70
2019-04-29T02:12:15.150Z,1.70
2019-04-29T02:14:44.889Z,1.70
2019-04-29T02:17:14.680Z,1.80
2019-04-29T02:19:44.431Z,2.27
2019-04-29T02:22:24.597Z,1.70
2019-04-29T02:24:58.085Z,1.87
2019-04-29T02:27:27.861Z,1.73
2019-04-29T02:30:01.929Z,1.77
2019-04-29T02:32:31.734Z,1.40
2019-04-29T02:35:01.535Z,1.70
2019-04-29T02:37:35.238Z,1.73
2019-04-29T02:40:15.536Z,1.60
2019-04-29T02:43:00.629Z,1.50
2019-04-29T02:45:33.211Z,1.70
2019-04-29T02:48:03.069Z,2.00
2019-04-29T02:50:32.880Z,2.10
2019-04-29T02:53:05.448Z,2.10
2019-04-29T02:55:39.166Z,2.00
2019-04-29T02:58:23.623Z,1.90
2019-04-29T03:01:15.226Z,2.60
2019-04-29T03:04:00.040Z,1.73
2019-04-29T03:06:29.850Z,1.63
2019-04-29T03:08:59.605Z,2.03
2019-04-29T03:11:29.347Z,2.00
2019-04-29T03:14:00.203Z,2.10
2019-04-29T03:16:30.185Z,1.83
2019-04-29T03:19:04.301Z,2.00
2019-04-29T03:21:38.548Z,2.20
2019-04-29T03:24:08.377Z,1.77
2019-04-29T03:26:38.090Z,2.10
2019-04-29T03:29:22.344Z,1.83
2019-04-29T03:31:56.709Z,2.37
2019-04-29T03:34:26.682Z,2.40
2019-04-29T03:36:56.444Z,1.97
2019-04-29T03:39:26.208Z,2.00
2019-04-29T03:41:55.948Z,2.17
2019-04-29T03:44:25.662Z,2.37
2019-04-29T03:46:55.422Z,2.07
2019-04-29T03:49:26.310Z,2.83
2019-04-29T03:51:56.045Z,2.23
2019-04-29T03:54:25.811Z,2.20
2019-04-29T03:56:55.495Z,2.33
2019-04-29T03:59:25.258Z,2.63
2019-04-29T04:02:06.871Z,2.67
2019-04-29T04:05:13.694Z,2.00
2019-04-29T04:07:48.306Z,2.50
2019-04-29T04:10:18.055Z,2.10
2019-04-29T04:12:47.971Z,2.20
2019-04-29T04:15:17.750Z,2.70
2019-04-29T04:18:18.319Z,2.57
2019-04-29T04:20:48.135Z,2.10
2019-04-29T04:23:17.936Z,2.20
2019-04-29T04:25:47.719Z,2.53
2019-04-29T04:28:17.494Z,3.37
2019-04-29T04:30:47.244Z,3.07
2019-04-29T04:33:17.076Z,3.00
2019-04-29T04:35:46.824Z,3.00
2019-04-29T04:38:25.776Z,2.60
2019-04-29T04:41:00.855Z,2.33
2019-04-29T04:43:33.402Z,2.53
2019-04-29T04:46:06.623Z,2.80
2019-04-29T04:48:36.506Z,4.17
2019-04-29T04:51:06.337Z,3.10
2019-04-29T04:53:36.153Z,3.00
2019-04-29T04:56:05.929Z,2.40
2019-04-29T04:58:35.629Z,3.13
2019-04-29T05:01:05.447Z,3.03
2019-04-29T05:03:35.341Z,2.97
2019-04-29T05:06:05.060Z,2.57
2019-04-29T05:08:34.751Z,2.93
2019-04-29T05:11:04.525Z,3.27
2019-04-29T05:13:34.295Z,3.50
2019-04-29T05:16:03.992Z,2.30
2019-04-29T05:18:33.827Z,3.00
2019-04-29T05:21:03.509Z,2.67
2019-04-29T05:23:34.970Z,2.80
2019-04-29T05:26:04.701Z,3.17
2019-04-29T05:28:34.525Z,2.30
2019-04-29T05:31:04.277Z,2.90
2019-04-29T05:33:34.005Z,2.70
2019-04-29T05:36:15.082Z,2.77
2019-04-29T05:39:06.499Z,2.60
2019-04-29T05:41:36.374Z,3.00
2019-04-29T05:44:19.015Z,2.60
2019-04-29T05:46:55.170Z,3.27
2019-04-29T05:49:37.429Z,2.90
2019-04-29T05:52:18.570Z,3.50
2019-04-29T05:54:51.005Z,3.50
2019-04-29T05:57:25.160Z,3.73
2019-04-29T05:59:52.217Z,2.90
2019-04-29T06:02:24.089Z,3.40
2019-04-29T06:04:54.045Z,3.70
2019-04-29T06:07:26.779Z,3.30
2019-04-29T06:09:55.225Z,3.70
2019-04-29T06:12:24.980Z,3.20
2019-04-29T06:14:54.785Z,3.37
2019-04-29T06:17:24.526Z,3.27
2019-04-29T06:19:54.284Z,3.43
2019-04-29T06:22:25.115Z,3.17
2019-04-29T06:24:54.855Z,3.60
2019-04-29T06:27:24.628Z,3.83
2019-04-29T06:29:54.349Z,3.10
2019-04-29T06:32:26.484Z,3.67
2019-04-29T06:34:56.420Z,3.60
2019-04-29T06:37:28.549Z,3.90
2019-04-29T06:39:58.334Z,4.47
2019-04-29T06:42:28.040Z,4.73
2019-04-29T06:44:57.829Z,4.40
2019-04-29T06:47:27.624Z,5.33
2019-04-29T06:49:59.650Z,4.50
2019-04-29T06:52:33.230Z,5.13
2019-04-29T06:55:02.998Z,4.57
2019-04-29T06:57:35.577Z,5.07
2019-04-29T07:00:05.928Z,4.67
2019-04-29T07:02:35.689Z,4.70
2019-04-29T07:05:05.826Z,5.47
2019-04-29T07:07:35.623Z,5.90
2019-04-29T07:10:06.687Z,5.53
2019-04-29T07:12:36.553Z,5.47
2019-04-29T07:15:12.296Z,5.43
2019-04-29T07:17:41.215Z,5.47
2019-04-29T07:20:11.022Z,5.47
2019-04-29T07:22:40.797Z,5.23
2019-04-29T07:25:10.583Z,5.80
2019-04-29T07:27:43.363Z,4.83
2019-04-29T07:30:12.146Z,5.10
2019-04-29T07:32:46.487Z,4.53
2019-04-29T07:35:19.477Z,4.47
2019-04-29T07:37:49.286Z,5.57
2019-04-29T07:40:19.496Z,5.70
2019-04-29T07:42:49.390Z,4.60
2019-04-29T07:45:50.046Z,4.40
2019-04-29T07:48:19.796Z,4.13
2019-04-29T07:50:49.630Z,4.70
2019-04-29T07:53:20.946Z,4.57
2019-04-29T07:55:50.784Z,4.93
2019-04-29T07:58:27.203Z,4.20
2019-04-29T08:00:56.288Z,4.77
2019-04-29T08:03:25.998Z,4.70
2019-04-29T08:05:55.824Z,4.70
2019-04-29T08:08:26.117Z,5.00
2019-04-29T08:10:56.790Z,5.17
2019-04-29T08:13:28.608Z,4.70
2019-04-29T08:15:58.398Z,5.00
2019-04-29T08:18:28.122Z,5.07
2019-04-29T08:20:57.906Z,4.43
2019-04-29T08:23:27.654Z,4.47
2019-04-29T08:26:02.534Z,4.87
2019-04-29T08:28:30.922Z,5.63
2019-04-29T08:31:03.573Z,4.93
2019-04-29T08:33:33.334Z,5.20
2019-04-29T08:36:03.094Z,4.70
2019-04-29T08:38:32.857Z,4.67
2019-04-29T08:41:02.683Z,4.27
2019-04-29T08:43:48.034Z,3.97
2019-04-29T08:46:21.163Z,4.60
2019-04-29T08:48:50.886Z,4.63
2019-04-29T08:51:20.650Z,4.97
2019-04-29T08:53:50.449Z,3.53
2019-04-29T08:56:20.198Z,4.67
2019-04-29T08:58:51.099Z,4.17
2019-04-29T09:01:20.970Z,4.50
2019-04-29T09:03:53.764Z,4.60
2019-04-29T09:06:22.137Z,4.03
2019-04-29T09:08:56.207Z,4.53
2019-04-29T09:11:27.431Z,4.20
2019-04-29T09:13:58.009Z,4.43
2019-04-29T09:16:27.714Z,5.17
2019-04-29T09:18:59.656Z,4.23
2019-04-29T09:21:30.479Z,4.00
2019-04-29T09:24:00.184Z,4.17
2019-04-29T09:26:37.925Z,3.70
2019-04-29T09:29:25.049Z,4.53
2019-04-29T09:31:55.035Z,4.47
2019-04-29T09:34:26.410Z,4.00
2019-04-29T09:36:59.337Z,4.37
2019-04-29T09:39:42.009Z,4.40
2019-04-29T09:42:13.239Z,4.73
2019-04-29T09:45:03.225Z,4.53
2019-04-29T09:47:33.341Z,4.20
2019-04-29T09:50:03.129Z,4.13
2019-04-29T09:52:32.898Z,4.03
2019-04-29T09:55:03.944Z,4.33
2019-04-29T09:57:34.073Z,4.13
2019-04-29T10:00:10.077Z,4.07
2019-04-29T10:02:50.390Z,4.23
2019-04-29T10:05:32.490Z,4.37
2019-04-29T10:08:02.329Z,4.00
2019-04-29T10:10:32.134Z,4.43
2019-04-29T10:13:01.917Z,3.90
2019-04-29T10:16:00.520Z,5.00
2019-04-29T10:18:48.836Z,4.47
2019-04-29T10:21:21.541Z,4.20
2019-04-29T10:23:52.541Z,3.77
2019-04-29T10:26:30.268Z,4.13
2019-04-29T10:29:03.980Z,4.63
2019-04-29T10:31:34.947Z,4.20
2019-04-29T10:34:05.442Z,4.50
2019-04-29T10:36:35.265Z,3.80
2019-04-29T10:39:37.335Z,4.17
2019-04-29T10:42:07.666Z,4.20
2019-04-29T10:44:42.913Z,3.93
2019-04-29T10:47:36.721Z,4.10
2019-04-29T10:50:15.400Z,4.17
2019-04-29T10:52:49.626Z,3.90
2019-04-29T10:55:20.767Z,3.63
2019-04-29T10:57:51.476Z,4.17
2019-04-29T11:00:44.349Z,4.27
2019-04-29T11:03:14.133Z,4.03
2019-04-29T11:06:00.106Z,4.47
2019-04-29T11:08:46.693Z,4.77
2019-04-29T11:11:23.206Z,4.10
2019-04-29T11:13:50.555Z,4.53
2019-04-29T11:16:22.945Z,4.37
2019-04-29T11:18:55.166Z,4.90
2019-04-29T11:21:29.061Z,4.20
2019-04-29T11:24:06.241Z,4.83
2019-04-29T11:26:47.833Z,4.40
2019-04-29T11:29:17.517Z,4.80
2019-04-29T11:31:49.062Z,4.70
2019-04-29T11:34:28.997Z,4.73
2019-04-29T11:36:58.834Z,4.23
2019-04-29T11:39:28.597Z,5.27
2019-04-29T11:42:01.238Z,4.87
2019-04-29T11:44:31.911Z,4.17
2019-04-29T11:47:01.862Z,4.63
2019-04-29T11:49:40.133Z,4.50
2019-04-29T11:52:10.397Z,4.87
2019-04-29T11:54:40.266Z,5.50
2019-04-29T11:57:17.165Z,4.47
2019-04-29T11:59:59.933Z,4.80
2019-04-29T12:03:00.691Z,4.57
2019-04-29T12:05:35.645Z,4.40
2019-04-29T12:08:16.061Z,4.13
2019-04-29T12:10:48.256Z,4.30
2019-04-29T12:13:41.637Z,4.00
2019-04-29T12:16:24.019Z,3.87
2019-04-29T12:18:58.029Z,4.50
2019-04-29T12:21:32.648Z,4.63
2019-04-29T12:24:04.521Z,4.70
2019-04-29T12:26:35.547Z,4.20
2019-04-29T12:29:06.052Z,4.20
2019-04-29T12:31:49.331Z,3.97
2019-04-29T12:34:33.145Z,4.47
2019-04-29T12:37:07.669Z,4.13
2019-04-29T12:39:59.742Z,4.13
2019-04-29T12:42:49.338Z,4.00
2019-04-29T12:45:32.875Z,4.53
2019-04-29T12:48:02.865Z,4.03
2019-04-29T12:50:34.766Z,4.20
2019-04-29T12:53:04.979Z,4.60
2019-04-29T12:55:45.176Z,4.83
2019-04-29T12:58:13.473Z,4.63
2019-04-29T13:00:48.038Z,4.10
2019-04-29T13:03:48.790Z,4.37
2019-04-29T13:06:39.477Z,4.60
2019-04-29T13:09:17.929Z,4.50
2019-04-29T13:11:48.900Z,4.63
2019-04-29T13:14:20.219Z,4.60
2019-04-29T13:17:13.938Z,4.73
2019-04-29T13:19:42.020Z,4.93
2019-04-29T13:22:15.532Z,4.50
2019-04-29T13:24:44.504Z,4.10
2019-04-29T13:27:16.322Z,4.70
2019-04-29T13:29:46.870Z,4.50
2019-04-29T13:32:16.747Z,5.20
2019-04-29T13:34:48.052Z,4.80
2019-04-29T13:37:18.977Z,4.10
2019-04-29T13:39:49.405Z,4.80
2019-04-29T13:42:19.098Z,4.80
2019-04-29T13:45:05.337Z,4.90
2019-04-29T13:47:34.605Z,4.77
2019-04-29T13:50:20.144Z,5.67
2019-04-29T13:52:45.836Z,4.90
2019-04-29T13:55:17.913Z,5.80
2019-04-29T13:57:49.652Z,5.07
2019-04-29T14:00:55.738Z,4.70
2019-04-29T14:03:47.176Z,5.67
2019-04-29T14:06:18.678Z,5.17
2019-04-29T14:08:47.443Z,5.07
2019-04-29T14:11:17.184Z,5.60
2019-04-29T14:13:49.198Z,5.60
2019-04-29T14:16:19.435Z,5.77
2019-04-29T14:18:50.040Z,6.07
2019-04-29T14:21:19.925Z,5.07
2019-04-29T14:23:49.628Z,5.20
2019-04-29T14:26:19.627Z,4.73
2019-04-29T14:28:49.421Z,4.63
2019-04-29T14:31:22.697Z,4.40
2019-04-29T14:34:04.225Z,4.77
2019-04-29T14:36:33.909Z,4.80
2019-04-29T14:39:03.789Z,4.70
2019-04-29T14:41:35.101Z,4.47
2019-04-29T14:44:40.674Z,4.60
2019-04-29T14:47:29.312Z,5.50
2019-04-29T14:50:01.259Z,5.90
2019-04-29T14:52:31.052Z,5.60
2019-04-29T14:55:00.841Z,5.40
2019-04-29T14:57:30.648Z,5.77
2019-04-29T15:00:01.454Z,5.83
2019-04-29T15:02:31.350Z,5.50
2019-04-29T15:05:01.216Z,5.10
2019-04-29T15:07:36.262Z,5.10
2019-04-29T15:10:08.499Z,5.33
2019-04-29T15:13:19.229Z,6.17
2019-04-29T15:15:49.194Z,5.80
2019-04-29T15:18:50.079Z,5.93
2019-04-29T15:21:46.460Z,5.20
2019-04-29T15:24:17.574Z,5.47
2019-04-29T15:26:48.518Z,5.30
2019-04-29T15:29:18.276Z,5.43
2019-04-29T15:31:48.971Z,4.93
2019-04-29T15:34:27.943Z,5.27
2019-04-29T15:36:57.770Z,4.80
2019-04-29T15:39:27.753Z,5.00
2019-04-29T15:41:57.469Z,5.07
2019-04-29T15:44:27.310Z,5.27
2019-04-29T15:46:57.184Z,5.10
2019-04-29T15:49:29.991Z,4.43
2019-04-29T15:51:59.814Z,4.90
2019-04-29T15:54:32.008Z,4.87
2019-04-29T15:57:03.716Z,4.47
2019-04-29T15:59:47.961Z,4.77
2019-04-29T16:02:08.294Z,4.90
2019-04-29T16:04:47.255Z,5.23
2019-04-29T16:07:37.798Z,4.63
2019-04-29T16:10:35.769Z,5.43
2019-04-29T16:13:09.836Z,5.60
2019-04-29T16:15:39.665Z,6.20
2019-04-29T16:18:10.568Z,5.77
2019-04-29T16:20:45.250Z,4.97
2019-04-29T16:23:15.003Z,6.00
2019-04-29T16:25:46.398Z,5.70
2019-04-29T16:28:16.176Z,5.40
2019-04-29T16:30:50.224Z,5.53
2019-04-29T16:33:19.990Z,5.50
2019-04-29T16:35:49.774Z,5.37
2019-04-29T16:38:19.664Z,5.77
2019-04-29T16:40:57.274Z,4.87
2019-04-29T16:43:33.532Z,5.60
2019-04-29T16:46:11.566Z,5.83
2019-04-29T16:48:42.725Z,5.53
2019-04-29T16:51:16.429Z,6.23
2019-04-29T16:53:45.332Z,5.37
2019-04-29T16:56:16.359Z,5.77
2019-04-29T16:58:46.269Z,5.60
2019-04-29T17:01:16.069Z,5.37
2019-04-29T17:03:45.934Z,6.17
2019-04-29T17:06:18.172Z,6.50
2019-04-29T17:09:12.866Z,5.57
2019-04-29T17:11:43.409Z,6.00
2019-04-29T17:14:14.129Z,5.60
2019-04-29T17:16:44.005Z,6.07
2019-04-29T17:19:13.717Z,6.80
2019-04-29T17:21:45.993Z,6.83
2019-04-29T17:24:15.744Z,5.67
2019-04-29T17:26:55.988Z,5.80
2019-04-29T17:29:55.563Z,6.17
2019-04-29T17:32:48.300Z,5.60
2019-04-29T17:35:21.548Z,5.67
2019-04-29T17:37:48.274Z,6.10
2019-04-29T17:40:19.421Z,6.37
2019-04-29T17:42:53.250Z,6.37
2019-04-29T17:45:31.055Z,6.13
2019-04-29T17:48:12.213Z,6.17
2019-04-29T17:50:49.445Z,7.00
2019-04-29T17:53:25.930Z,6.53
2019-04-29T17:56:01.954Z,6.07
2019-04-29T17:58:38.825Z,6.30
2019-04-29T18:01:32.049Z,6.03
2019-04-29T18:04:23.745Z,6.07
2019-04-29T18:07:12.597Z,6.80
2019-04-29T18:09:52.426Z,7.17
2019-04-29T18:12:24.992Z,6.53
2019-04-29T18:14:55.130Z,7.83
2019-04-29T18:17:31.164Z,7.37
2019-04-29T18:20:13.647Z,7.40
2019-04-29T18:23:00.701Z,7.00
2019-04-29T18:25:55.511Z,7.83
2019-04-29T18:28:25.914Z,7.60
2019-04-29T18:30:57.845Z,7.00
2019-04-29T18:33:30.219Z,8.20
2019-04-29T18:36:06.411Z,6.70
2019-04-29T18:38:37.285Z,6.93
2019-04-29T18:41:07.038Z,6.63
2019-04-29T18:43:36.885Z,8.17
2019-04-29T18:46:14.446Z,7.63
2019-04-29T18:48:45.634Z,8.00
2019-04-29T18:51:15.565Z,7.03
2019-04-29T18:53:47.108Z,8.00
2019-04-29T18:56:16.740Z,8.23
2019-04-29T18:58:50.133Z,6.93
2019-04-29T19:01:19.665Z,8.43
2019-04-29T19:04:10.203Z,8.03
2019-04-29T19:06:40.947Z,8.33
2019-04-29T19:09:17.929Z,8.53
2019-04-29T19:11:42.528Z,7.73
2019-04-29T19:14:15.124Z,7.80
2019-04-29T19:16:45.900Z,8.47
2019-04-29T19:19:17.387Z,9.27
2019-04-29T19:21:47.526Z,8.67
2019-04-29T19:24:17.332Z,8.43
2019-04-29T19:26:47.093Z,8.47
2019-04-29T19:29:16.861Z,8.07
2019-04-29T19:31:49.857Z,8.83
2019-04-29T19:34:19.838Z,8.30
2019-04-29T19:36:50.689Z,8.60
2019-04-29T19:39:21.888Z,7.97
2019-04-29T19:41:52.448Z,9.40
2019-04-29T19:44:26.406Z,9.20
2019-04-29T19:46:56.285Z,9.47
2019-04-29T19:49:25.819Z,10.27
2019-04-29T19:51:55.617Z,9.10
2019-04-29T19:54:28.466Z,8.97
2019-04-29T19:57:03.539Z,9.57
2019-04-29T19:59:28.827Z,8.97
2019-04-29T20:02:05.187Z,10.10
2019-04-29T20:04:39.217Z,10.13
2019-04-29T20:07:10.734Z,10.67
2019-04-29T20:09:41.813Z,10.53
2019-04-29T20:12:14.205Z,11.07
2019-04-29T20:14:44.210Z,10.43
2019-04-29T20:17:51.380Z,11.17
2019-04-29T20:20:33.912Z,9.77
2019-04-29T20:23:01.137Z,10.27
2019-04-29T20:25:37.910Z,10.50
2019-04-29T20:28:06.095Z,10.10
2019-04-29T20:30:34.609Z,9.73
2019-04-29T20:33:11.100Z,11.20
2019-04-29T20:35:40.523Z,10.37
2019-04-29T20:38:07.787Z,10.07
2019-04-29T20:40:43.334Z,10.23
2019-04-29T20:43:11.878Z,10.10
2019-04-29T20:45:41.757Z,10.20
2019-04-29T20:48:17.838Z,9.70
2019-04-29T20:50:46.063Z,10.63
2019-04-29T20:53:37.848Z,10.50
2019-04-29T20:56:11.993Z,10.23
2019-04-29T20:58:37.340Z,9.77
2019-04-29T21:01:11.366Z,9.83
2019-04-29T21:03:48.723Z,10.00
2019-04-29T21:06:15.269Z,10.03
2019-04-29T21:08:50.880Z,9.20
2019-04-29T21:11:25.582Z,9.87
2019-04-29T21:14:02.833Z,9.93
2019-04-29T21:16:35.155Z,9.67
2019-04-29T21:19:09.103Z,9.50
2019-04-29T21:21:54.719Z,9.77
2019-04-29T21:24:25.086Z,9.07
2019-04-29T21:27:05.432Z,8.90
2019-04-29T21:29:35.845Z,8.73
2019-04-29T21:32:05.975Z,9.17
2019-04-29T21:34:45.239Z,8.53
2019-04-29T21:37:48.774Z,9.83
2019-04-29T21:40:29.560Z,8.90
2019-04-29T21:43:13.444Z,9.83
2019-04-29T21:45:46.899Z,9.60
2019-04-29T21:48:14.837Z,9.60
2019-04-29T21:50:44.948Z,9.40
2019-04-29T21:53:15.063Z,8.77
2019-04-29T21:55:45.926Z,8.43
2019-04-29T21:58:18.283Z,8.80
2019-04-29T22:00:48.051Z,8.33
2019-04-29T22:03:19.756Z,9.00
2019-04-29T22:05:53.410Z,8.87
2019-04-29T22:08:25.155Z,9.10
2019-04-29T22:10:52.115Z,8.77
2019-04-29T22:13:21.886Z,8.37
2019-04-29T22:15:51.660Z,8.37
2019-04-29T22:18:21.695Z,8.97
2019-04-29T22:20:51.418Z,8.93
2019-04-29T22:23:21.131Z,8.80
2019-04-29T22:25:51.054Z,8.47
2019-04-29T22:28:20.828Z,8.23
2019-04-29T22:30:54.834Z,8.23
2019-04-29T22:33:22.159Z,9.00
2019-04-29T22:35:51.948Z,8.63
2019-04-29T22:38:21.672Z,7.93
2019-04-29T22:40:52.589Z,8.47
2019-04-29T22:43:36.144Z,8.50
2019-04-29T22:46:09.393Z,7.47
2019-04-29T22:48:40.593Z,7.90
2019-04-29T22:51:10.151Z,7.30
2019-04-29T22:53:44.152Z,7.83
2019-04-29T22:56:14.018Z,7.37
2019-04-29T22:58:43.805Z,7.27
2019-04-29T23:01:15.568Z,7.73
2019-04-29T23:03:47.102Z,7.47
2019-04-29T23:06:17.076Z,8.07
2019-04-29T23:08:46.834Z,7.97
2019-04-29T23:11:16.600Z,7.13
2019-04-29T23:13:48.939Z,6.73
2019-04-29T23:16:20.358Z,7.13
2019-04-29T23:18:55.122Z,7.13
2019-04-29T23:21:44.623Z,7.60
2019-04-29T23:24:35.381Z,7.57
2019-04-29T23:27:06.201Z,6.60
2019-04-29T23:29:43.302Z,7.33
2019-04-29T23:32:15.200Z,7.40
2019-04-29T23:34:45.117Z,7.17
2019-04-29T23:37:23.353Z,6.63
2019-04-29T23:39:49.577Z,7.33
2019-04-29T23:42:19.330Z,6.63
2019-04-29T23:44:49.139Z,6.63
2019-04-29T23:47:18.945Z,7.40
2019-04-29T23:49:51.047Z,6.63
2019-04-29T23:52:20.873Z,7.30
2019-04-29T23:54:50.673Z,7.07
2019-04-29T23:57:55.589Z,6.87
